Time;durP1;ratioP1;P1;durP2;ratioP2;P2;SDS_P1;SDS_P2;PMS_P1;PMS_P2;Temp;Humidity;BMP_temperature;BMP_pressure;BME280_temperature;BME280_humidity;BME280_pressure;Samples;Min_cycle;Max_cycle;Signal;HPM_P1;HPM_P2
2022/12/19 00:02:04;;;;;;;32.50;16.65;;;;;;;-0.02;100.00;101749.44;5074170;28;20020;-86
2022/12/19 00:04:41;;;;;;;32.15;17.83;;;;;;;0.09;100.00;101743.13;5074671;28;20089;-87
2022/12/19 00:07:06;;;;;;;30.80;16.65;;;;;;;0.12;100.00;101733.00;5074629;28;20062;-87
2022/12/19 00:09:31;;;;;;;30.52;16.35;;;;;;;0.14;100.00;101730.53;5075267;28;20044;-88
2022/12/19 00:12:03;;;;;;;33.10;17.67;;;;;;;0.19;100.00;101730.75;5074438;28;20063;-87
2022/12/19 00:14:31;;;;;;;32.08;16.75;;;;;;;0.20;100.00;101724.81;5074860;28;20028;-87
2022/12/19 00:17:10;;;;;;;28.00;15.32;;;;;;;0.33;100.00;101721.97;5074617;28;20025;-88
2022/12/19 00:19:38;;;;;;;32.67;17.58;;;;;;;0.38;100.00;101725.56;5074574;28;20035;-88
2022/12/19 00:22:03;;;;;;;32.60;17.15;;;;;;;0.27;100.00;101722.59;5074375;28;20369;-87
2022/12/19 00:24:29;;;;;;;33.38;18.17;;;;;;;0.36;100.00;101728.88;5074064;28;20036;-88
2022/12/19 00:26:54;;;;;;;31.20;16.67;;;;;;;0.39;100.00;101724.75;5074578;28;20423;-87
2022/12/19 00:29:31;;;;;;;32.40;17.08;;;;;;;0.40;100.00;101707.75;5074227;28;20129;-87
2022/12/19 00:31:57;;;;;;;32.28;17.23;;;;;;;0.30;100.00;101711.63;5074567;28;20028;-88
2022/12/19 00:34:22;;;;;;;32.10;17.33;;;;;;;0.30;100.00;101702.28;5074344;28;20036;-87
2022/12/19 00:36:48;;;;;;;33.30;17.55;;;;;;;0.35;100.00;101699.03;5074492;28;20020;-88
2022/12/19 00:39:13;;;;;;;33.28;17.88;;;;;;;0.41;100.00;101699.28;5074589;28;20458;-87
2022/12/19 00:41:47;;;;;;;33.78;18.55;;;;;;;0.37;100.00;101708.50;5074594;28;20111;-88
2022/12/19 00:44:16;;;;;;;33.17;17.42;;;;;;;0.33;100.00;101686.22;5073733;28;20461;-88
2022/12/19 00:46:42;;;;;;;33.55;17.80;;;;;;;0.35;100.00;101692.25;5074495;28;20534;-88
2022/12/19 00:49:07;;;;;;;34.22;18.45;;;;;;;0.35;100.00;101687.13;5074251;28;20024;-87
2022/12/19 00:51:36;;;;;;;32.90;18.38;;;;;;;0.38;100.00;101686.41;5073732;28;20465;-88
2022/12/19 00:54:01;;;;;;;31.38;16.80;;;;;;;0.40;100.00;101692.41;5074207;28;20028;-88
2022/12/19 00:56:32;;;;;;;30.77;16.02;;;;;;;0.44;100.00;101692.63;5073553;28;20060;-88
2022/12/19 00:58:58;;;;;;;29.75;15.15;;;;;;;0.44;100.00;101691.75;5074193;28;20104;-88
2022/12/19 01:01:34;;;;;;;33.45;18.15;;;;;;;0.47;100.00;101671.44;5073640;28;20132;-86
2022/12/19 01:04:12;;;;;;;32.33;17.35;;;;;;;0.56;100.00;101660.72;5074131;28;20106;-88
2022/12/19 01:06:38;;;;;;;32.00;17.33;;;;;;;0.55;100.00;101672.59;5074222;28;20025;-88
2022/12/19 01:09:07;;;;;;;31.90;17.30;;;;;;;0.57;100.00;101677.75;5073739;28;20347;-88
2022/12/19 01:14:16;;;;;;;32.25;16.85;;;;;;;0.62;100.00;101678.84;5073559;28;20082;-88
2022/12/19 01:16:42;;;;;;;34.53;18.35;;;;;;;0.72;100.00;101672.41;5073800;28;20028;-87
2022/12/19 01:19:07;;;;;;;33.30;17.75;;;;;;;0.61;100.00;101665.19;5072963;28;20110;-87
2022/12/19 01:21:36;;;;;;;33.78;17.17;;;;;;;0.61;100.00;101665.19;5073456;28;20516;-87
2022/12/19 01:24:02;;;;;;;29.52;16.00;;;;;;;0.61;100.00;101652.44;5073429;28;20028;-87
2022/12/19 01:26:28;;;;;;;28.60;16.10;;;;;;;0.62;100.00;101653.28;5073262;28;20127;-87
2022/12/19 01:28:53;;;;;;;32.28;17.50;;;;;;;0.63;100.00;101638.81;5073582;28;20025;-87
2022/12/19 01:31:18;;;;;;;31.98;17.77;;;;;;;0.68;100.00;101640.72;5073196;28;20071;-87
2022/12/19 01:33:43;;;;;;;30.90;16.80;;;;;;;0.62;100.00;101637.97;5073416;28;20047;-88
2022/12/19 01:36:09;;;;;;;33.92;18.73;;;;;;;0.68;100.00;101635.63;5072872;28;20476;-87
2022/12/19 01:38:35;;;;;;;33.15;17.85;;;;;;;0.63;100.00;101634.59;5073234;28;20032;-87
2022/12/19 01:41:01;;;;;;;31.35;16.98;;;;;;;0.64;100.00;101651.66;5073442;28;20025;-87
2022/12/19 01:43:51;;;;;;;31.52;17.23;;;;;;;0.67;100.00;101641.56;5073190;28;20027;-87
2022/12/19 01:46:22;;;;;;;31.48;16.73;;;;;;;0.69;100.00;101639.91;5072782;28;20028;-87
2022/12/19 01:48:47;;;;;;;30.17;16.42;;;;;;;0.67;100.00;101651.78;5073513;28;20024;-87
2022/12/19 01:51:19;;;;;;;29.23;15.32;;;;;;;0.65;100.00;101645.75;5073033;28;20062;-88
2022/12/19 01:53:53;;;;;;;31.08;15.98;;;;;;;0.68;100.00;101639.88;5073596;28;20056;-88
2022/12/19 01:56:23;;;;;;;29.65;16.15;;;;;;;0.74;100.00;101638.44;5073287;28;20031;-87
2022/12/19 01:58:50;;;;;;;30.67;16.77;;;;;;;0.70;100.00;101635.69;5074497;28;20397;-87
2022/12/19 02:01:16;;;;;;;31.52;16.58;;;;;;;0.70;100.00;101634.00;5072314;28;20239;-87
2022/12/19 02:03:44;;;;;;;30.38;15.40;;;;;;;0.69;100.00;101636.50;5075744;28;20392;-87
2022/12/19 02:06:11;;;;;;;;;;;;;;;0.72;100.00;101621.31;5077639;28;20032;-87
2022/12/19 02:08:36;;;;;;;29.50;15.32;;;;;;;0.71;100.00;101637.44;5077109;28;19912;-87
2022/12/19 02:11:01;;;;;;;31.02;17.02;;;;;;;0.79;100.00;101635.19;5077240;28;20132;-87
2022/12/19 02:13:27;;;;;;;30.13;15.65;;;;;;;0.73;100.00;101621.34;5076806;28;20025;-87
2022/12/19 02:16:17;;;;;;;29.17;15.85;;;;;;;0.77;100.00;101612.09;5076894;28;20042;-87
2022/12/19 02:18:53;;;;;;;29.35;15.27;;;;;;;0.75;100.00;101606.94;5077394;28;20020;-87
2022/12/19 02:21:51;;;;;;;31.92;16.65;;;;;;;0.82;100.00;101602.06;5076836;28;20197;-87
2022/12/19 02:24:33;;;;;;;28.73;15.27;;;;;;;0.79;100.00;101602.81;5056506;28;20112;-88
2022/12/19 02:27:16;;;;;;;28.90;15.00;;;;;;;0.80;100.00;101596.00;5056994;28;20025;-87
2022/12/19 02:29:50;;;;;;;28.67;15.50;;;;;;;0.81;100.00;101596.09;5056661;28;20078;-87
2022/12/19 02:32:20;;;;;;;29.65;15.77;;;;;;;0.83;100.00;101591.03;5056905;28;20020;-88
2022/12/19 02:34:55;;;;;;;27.92;14.38;;;;;;;0.84;100.00;101583.44;5056820;28;20029;-87
2022/12/19 02:37:29;;;;;;;29.17;14.85;;;;;;;0.86;100.00;101583.47;5056730;28;20025;-87
2022/12/19 02:40:01;;;;;;;27.10;13.95;;;;;;;0.89;100.00;101586.16;5056898;28;20032;-87
2022/12/19 02:42:34;;;;;;;27.23;13.35;;;;;;;0.90;100.00;101578.53;5068386;28;20021;-87
2022/12/19 02:45:02;;;;;;;25.98;13.27;;;;;;;0.95;100.00;101575.28;5076796;28;20028;-87
2022/12/19 02:47:30;;;;;;;27.08;14.38;;;;;;;0.97;100.00;101569.41;5076387;28;20064;-87
2022/12/19 02:49:58;;;;;;;27.35;14.38;;;;;;;1.10;100.00;101572.41;5076461;28;20027;-88
2022/12/19 02:52:24;;;;;;;28.63;14.90;;;;;;;1.08;100.00;101557.88;5076259;28;20078;-87
2022/12/19 02:54:59;;;;;;;26.40;13.82;;;;;;;1.10;100.00;101557.91;5076417;28;20485;-87
2022/12/19 02:57:38;;;;;;;23.95;12.00;;;;;;;1.11;100.00;101554.53;5071491;28;20469;-87
2022/12/19 03:00:34;;;;;;;24.85;11.48;;;;;;;1.15;100.00;101546.16;5076030;28;20040;-87
2022/12/19 03:03:12;;;;;;;27.25;13.50;;;;;;;1.21;100.00;101543.81;5074995;28;20040;-88
2022/12/19 03:05:50;;;;;;;25.00;12.15;;;;;;;1.24;100.00;101543.03;5076343;28;20474;-88
2022/12/19 03:08:41;;;;;;;25.95;13.63;;;;;;;1.26;100.00;101549.09;5079776;28;20036;-88
2022/12/19 03:11:12;;;;;;;25.85;12.50;;;;;;;1.31;100.00;101545.00;5085299;28;20361;-88
2022/12/19 03:13:48;;;;;;;25.85;13.50;;;;;;;1.36;100.00;101546.03;5076340;28;20035;-88
2022/12/19 03:16:14;;;;;;;26.52;13.60;;;;;;;1.42;100.00;101547.06;5075774;28;20063;-87
2022/12/19 03:18:40;;;;;;;24.52;12.77;;;;;;;1.42;100.00;101549.63;5076160;28;20110;-88
2022/12/19 03:21:22;;;;;;;25.85;13.20;;;;;;;1.45;100.00;101553.13;5075589;28;20388;-88
2022/12/19 03:23:49;;;;;;;24.35;11.70;;;;;;;1.47;100.00;101546.41;5076156;28;20028;-88
2022/12/19 03:26:16;;;;;;;;;;;;;;;1.54;100.00;101539.78;5076065;28;20025;-88
2022/12/19 03:28:50;;;;;;;24.02;10.82;;;;;;;1.54;100.00;101544.91;5076242;28;19940;-88
2022/12/19 03:31:20;;;;;;;24.45;11.07;;;;;;;1.64;100.00;101544.41;5075522;28;20032;-88
2022/12/19 03:33:53;;;;;;;25.98;12.90;;;;;;;1.74;100.00;101542.13;5076340;28;20123;-88
2022/12/19 03:36:23;;;;;;;25.90;13.23;;;;;;;1.72;100.00;101534.41;5075550;28;20106;-89
2022/12/19 03:38:49;;;;;;;24.38;11.68;;;;;;;1.75;100.00;101541.31;5074736;28;20086;-89
2022/12/19 03:43:07;;;;;;;27.15;14.02;;;;;;;1.88;100.00;101528.09;5075984;28;20020;-89
2022/12/19 03:44:06;;;;;;;24.60;12.43;;;;;;;1.87;100.00;101531.47;5075765;28;20465;-89
2022/12/19 03:46:37;;;;;;;22.13;11.13;;;;;;;1.90;100.00;101531.56;5075331;28;20028;-89
2022/12/19 03:49:03;;;;;;;21.67;10.85;;;;;;;1.93;100.00;101531.66;5075690;28;20025;-89
2022/12/19 03:51:37;;;;;;;23.63;11.30;;;;;;;2.03;100.00;101527.69;5076039;28;20035;-89
2022/12/19 03:54:12;;;;;;;23.20;11.00;;;;;;;2.08;100.00;101530.38;5075194;28;20529;-89
2022/12/19 03:56:44;;;;;;;22.00;10.73;;;;;;;2.14;100.00;101520.31;5075667;28;20381;-89
2022/12/19 03:59:19;;;;;;;20.08;9.23;;;;;;;2.17;100.00;101517.88;5075058;28;20044;-88
2022/12/19 04:01:45;;;;;;;21.70;10.23;;;;;;;2.24;100.00;101512.13;5075592;28;20025;-89
2022/12/19 04:04:12;;;;;;;19.85;8.75;;;;;;;2.30;100.00;101517.41;5075223;28;20033;-89
2022/12/19 04:06:39;;;;;;;19.85;8.73;;;;;;;2.38;100.00;101506.50;5074721;28;20040;-88
2022/12/19 04:09:05;;;;;;;19.13;8.27;;;;;;;2.45;100.00;101508.44;5075374;28;20100;-89
2022/12/19 04:11:39;;;;;;;20.13;8.43;;;;;;;2.52;100.00;101507.78;5075540;28;20450;-89
2022/12/19 04:14:14;;;;;;;19.90;8.70;;;;;;;2.59;100.00;101503.69;5075125;28;20024;-89
2022/12/19 04:16:54;;;;;;;20.15;8.95;;;;;;;2.69;100.00;101507.41;5075209;28;20036;-89
2022/12/19 04:19:54;;;;;;;19.52;8.65;;;;;;;2.75;100.00;101510.13;5074696;28;20060;-89
2022/12/19 04:22:30;;;;;;;20.13;8.90;;;;;;;2.82;100.00;101496.63;5070226;28;20043;-89
2022/12/19 04:24:59;;;;;;;19.50;9.07;;;;;;;2.89;100.00;101501.13;5074312;28;20102;-89
2022/12/19 04:27:26;;;;;;;17.95;8.40;;;;;;;2.93;100.00;101492.66;5074611;28;20028;-90
2022/12/19 04:29:54;;;;;;;;;;;;;;;3.00;100.00;101498.81;5074901;28;20021;-89
2022/12/19 04:32:21;;;;;;;16.98;7.55;;;;;;;3.07;100.00;101497.28;5074437;28;20391;-89
2022/12/19 04:34:46;;;;;;;18.10;7.70;;;;;;;3.11;100.00;101488.88;5074938;28;20021;-90
2022/12/19 04:37:12;;;;;;;17.88;7.38;;;;;;;3.16;100.00;101491.53;5074679;28;20357;-89
2022/12/19 04:39:37;;;;;;;18.77;8.30;;;;;;;3.24;100.00;101483.22;5074698;28;20104;-89
2022/12/19 04:42:03;;;;;;;15.45;7.15;;;;;;;3.28;100.00;101493.53;5074412;28;20035;-89
2022/12/19 04:44:28;;;;;;;16.13;6.88;;;;;;;3.32;100.00;101491.09;5074585;28;20074;-89
2022/12/19 04:47:02;;;;;;;15.95;7.00;;;;;;;3.34;100.00;101486.00;5074786;28;20023;-90
2022/12/19 04:49:27;;;;;;;18.58;8.13;;;;;;;3.45;100.00;101483.69;5067993;28;20028;-89
2022/12/19 04:51:53;;;;;;;18.40;7.97;;;;;;;3.49;100.00;101488.09;5074054;28;20027;-90
2022/12/19 04:54:18;;;;;;;17.83;8.00;;;;;;;3.52;100.00;101480.47;5073699;28;20366;-89
2022/12/19 04:56:43;;;;;;;16.98;7.63;;;;;;;3.60;100.00;101478.09;5074315;28;20025;-89
2022/12/19 04:59:08;;;;;;;18.30;7.78;;;;;;;3.62;100.00;101481.53;5073705;28;20029;-90
2022/12/19 05:01:34;;;;;;;16.58;7.35;;;;;;;3.67;100.00;101482.53;5074000;28;20120;-89
2022/12/19 05:03:59;;;;;;;15.57;7.13;;;;;;;3.71;100.00;101489.47;5073965;28;20032;-90
2022/12/19 05:06:24;;;;;;;14.98;6.85;;;;;;;3.79;100.00;101489.63;5074140;28;20064;-89
2022/12/19 05:08:50;;;;;;;13.60;6.35;;;;;;;3.82;100.00;101485.47;5074105;28;20028;-89
2022/12/19 05:11:16;;;;;;;16.13;6.88;;;;;;;3.89;100.00;101477.88;5073834;28;20078;-89
2022/12/19 05:13:41;;;;;;;15.23;7.20;;;;;;;3.90;100.00;101475.34;5074379;28;20056;-90
2022/12/19 05:16:09;;;;;;;16.10;6.75;;;;;;;3.96;100.00;101479.75;5073883;28;20060;-90
2022/12/19 05:18:36;;;;;;;15.80;7.20;;;;;;;4.00;100.00;101479.00;5074255;28;20021;-90
2022/12/19 05:21:02;;;;;;;16.02;7.13;;;;;;;4.06;100.00;101478.25;5074212;28;20052;-91
2022/12/19 05:23:28;;;;;;;17.98;7.90;;;;;;;4.10;100.00;101470.66;5073478;28;20024;-88
2022/12/19 05:25:56;;;;;;;14.23;6.75;;;;;;;4.13;100.00;101468.16;5074191;28;20031;-91
2022/12/19 05:28:22;;;;;;;16.15;7.32;;;;;;;4.13;100.00;101473.28;5074027;28;20431;-90
2022/12/19 05:30:47;;;;;;;13.13;6.18;;;;;;;4.15;100.00;101476.75;5073961;28;20052;-90
2022/12/19 05:33:12;;;;;;;15.65;7.28;;;;;;;4.19;100.00;101469.97;5074343;28;20016;-90
2022/12/19 05:35:38;;;;;;;14.88;7.07;;;;;;;4.20;100.00;101469.16;5073597;28;20028;-90
2022/12/19 05:38:03;;;;;;;16.15;7.45;;;;;;;4.25;100.00;101470.09;5073870;28;20028;-90
2022/12/19 05:40:29;;;;;;;15.80;7.45;;;;;;;4.36;100.00;101465.19;5073439;28;20029;-90
2022/12/19 05:42:55;;;;;;;15.88;7.43;;;;;;;4.35;100.00;101460.00;5073286;28;20055;-90
2022/12/19 05:45:20;;;;;;;16.55;7.68;;;;;;;4.37;100.00;101466.94;5073680;28;20457;-90
2022/12/19 05:47:46;;;;;;;15.57;6.90;;;;;;;4.42;100.00;101461.88;5074040;28;20017;-90
2022/12/19 05:50:13;;;;;;;14.10;6.40;;;;;;;4.46;100.00;101466.22;5073302;28;20452;-90
2022/12/19 05:52:42;;;;;;;12.98;6.07;;;;;;;4.45;100.00;101461.91;5074206;28;20070;-89
2022/12/19 05:55:10;;;;;;;14.38;6.70;;;;;;;4.48;100.00;101462.00;5073135;28;20111;-87
2022/12/19 05:57:38;;;;;;;15.65;7.13;;;;;;;4.56;100.00;101470.72;5073493;28;20103;-91
2022/12/19 06:00:04;;;;;;;13.27;6.47;;;;;;;4.55;100.00;101469.00;5072767;28;20050;-90
2022/12/19 06:02:32;;;;;;;16.15;7.18;;;;;;;4.70;100.00;101468.44;5073086;28;20028;-88
2022/12/19 06:04:58;;;;;;;13.75;6.63;;;;;;;4.66;100.00;101476.91;5072662;28;20037;-85
2022/12/19 06:07:23;;;;;;;14.65;6.80;;;;;;;4.69;100.00;101464.13;5071494;28;20038;-86
2022/12/19 06:09:49;;;;;;;15.37;7.10;;;;;;;4.73;100.00;101463.31;5073485;28;20048;-90
2022/12/19 06:12:14;;;;;;;16.52;7.93;;;;;;;4.94;100.00;101468.00;5073107;28;20032;-89
2022/12/19 06:14:39;;;;;;;15.25;7.18;;;;;;;4.89;100.00;101466.19;5073363;28;20124;-90
2022/12/19 06:17:04;;;;;;;15.75;7.10;;;;;;;4.85;100.00;101469.53;5073410;28;20029;-90
2022/12/19 06:19:30;;;;;;;14.27;6.57;;;;;;;4.86;100.00;101463.56;5073449;28;20076;-90
2022/12/19 06:21:55;;;;;;;13.00;6.50;;;;;;;4.85;100.00;101467.84;5073067;28;20047;-90
2022/12/19 06:24:23;;;;;;;16.05;7.57;;;;;;;4.96;100.00;101465.44;5073736;28;20032;-90
2022/12/19 06:26:48;;;;;;;16.30;7.45;;;;;;;4.94;100.00;101464.59;5073013;28;20021;-90
2022/12/19 06:29:13;;;;;;;13.43;6.85;;;;;;;4.95;100.00;101463.75;5073104;28;20027;-90
2022/12/19 06:31:38;;;;;;;14.32;7.05;;;;;;;4.97;100.00;101463.75;5073367;28;20028;-89
2022/12/19 06:34:04;;;;;;;14.32;6.60;;;;;;;4.99;100.00;101478.38;5072968;28;20092;-89
2022/12/19 06:36:32;;;;;;;14.93;6.70;;;;;;;4.97;100.00;101471.47;5073184;28;20357;-96
2022/12/19 06:38:58;;;;;;;14.00;6.50;;;;;;;4.99;100.00;101480.09;5073915;28;20050;-91
2022/12/19 06:44:09;;;;;;;13.48;6.28;;;;;;;4.99;100.00;101483.53;5073271;28;20496;-91
2022/12/19 06:46:35;;;;;;;13.85;6.72;;;;;;;5.05;100.00;101490.47;5073336;28;20123;-88
2022/12/19 06:49:01;;;;;;;13.88;6.50;;;;;;;5.13;100.00;101485.47;5073677;28;20048;-88
2022/12/19 06:51:27;;;;;;;15.23;7.20;;;;;;;5.18;100.00;101473.56;5076036;28;20025;-88
2022/12/19 06:53:52;;;;;;;13.75;6.60;;;;;;;5.15;100.00;101488.94;5076689;28;20021;-88
2022/12/19 06:56:19;;;;;;;14.20;6.93;;;;;;;5.17;100.00;101479.56;5075444;28;20079;-87
2022/12/19 06:58:44;;;;;;;12.20;6.05;;;;;;;5.16;100.00;101488.97;5076953;28;20029;-88
2022/12/19 07:01:43;;;;;;;14.57;6.77;;;;;;;5.19;100.00;101490.72;5075981;28;20182;-90
2022/12/19 07:04:12;;;;;;;13.15;6.40;;;;;;;5.18;100.00;101481.28;5059982;28;20040;-90
2022/12/19 07:06:37;;;;;;;12.70;6.18;;;;;;;5.20;100.00;101482.16;5076509;28;20028;-90
2022/12/19 07:09:04;;;;;;;14.93;6.70;;;;;;;5.19;100.00;101489.03;5075115;28;20174;-90
2022/12/19 07:11:29;;;;;;;;;;;;;;;5.23;100.00;101488.25;5076755;28;20438;-88
2022/12/19 07:13:54;;;;;;;13.10;6.30;;;;;;;5.22;100.00;101488.22;5076106;28;20003;-91
2022/12/19 07:16:20;;;;;;;13.18;6.50;;;;;;;5.25;100.00;101481.41;5074977;28;20585;-89
2022/12/19 07:18:45;;;;;;;12.77;6.30;;;;;;;5.26;100.00;101492.56;5076212;28;20020;-88
2022/12/19 07:21:10;;;;;;;15.18;6.40;;;;;;;5.30;100.00;101483.19;5075206;28;20048;-88
2022/12/19 07:23:37;;;;;;;13.43;6.80;;;;;;;5.29;100.00;101477.19;5074993;28;20021;-89
2022/12/19 07:26:02;;;;;;;12.50;6.10;;;;;;;5.32;100.00;101492.66;5075895;28;20078;-88
2022/12/19 07:28:28;;;;;;;12.65;6.07;;;;;;;5.30;100.00;101481.47;5075907;28;20381;-88
2022/12/19 07:30:53;;;;;;;12.57;6.35;;;;;;;5.34;100.00;101485.84;5075200;28;20031;-88
2022/12/19 07:33:19;;;;;;;13.88;6.80;;;;;;;5.36;100.00;101488.44;5075383;28;20369;-88
2022/12/19 07:35:44;;;;;;;14.05;6.68;;;;;;;5.41;100.00;101494.53;5076204;28;20486;-91
2022/12/19 07:38:09;;;;;;;13.93;6.80;;;;;;;5.41;100.00;101491.97;5074728;28;20025;-93
2022/12/19 07:40:35;;;;;;;13.38;6.60;;;;;;;5.43;100.00;101486.81;5075346;28;20020;-85
2022/12/19 07:43:02;;;;;;;13.68;6.75;;;;;;;5.44;100.00;101492.03;5075032;28;20319;-84
2022/12/19 07:45:28;;;;;;;13.85;6.70;;;;;;;5.45;100.00;101490.28;5074169;28;20095;-83
2022/12/19 07:47:54;;;;;;;14.55;6.53;;;;;;;5.47;100.00;101493.78;5074961;28;20028;-85
2022/12/19 07:50:20;;;;;;;14.05;6.28;;;;;;;5.49;100.00;101497.25;5075083;28;20020;-84
2022/12/19 07:52:45;;;;;;;12.55;6.00;;;;;;;5.55;100.00;101500.78;5073918;28;20028;-85
2022/12/19 07:55:11;;;;;;;13.13;6.07;;;;;;;5.50;100.00;101497.25;5074411;28;20028;-85
2022/12/19 07:57:36;;;;;;;11.70;6.00;;;;;;;5.53;100.00;101501.56;5074384;28;20104;-85
2022/12/19 08:00:03;;;;;;;11.80;6.05;;;;;;;5.52;100.00;101512.72;5072684;28;20052;-84
2022/12/19 08:02:29;;;;;;;11.27;5.38;;;;;;;5.53;100.00;101514.47;5074185;28;20028;-84
2022/12/19 08:04:54;;;;;;;12.45;5.72;;;;;;;5.51;100.00;101519.59;5074512;28;20542;-84
2022/12/19 08:07:19;;;;;;;13.02;6.05;;;;;;;5.55;100.00;101521.38;5073557;28;20457;-85
2022/12/19 08:09:45;;;;;;;11.85;5.85;;;;;;;5.53;100.00;101520.50;5074264;28;20036;-85
2022/12/19 08:12:10;;;;;;;11.87;5.90;;;;;;;5.55;100.00;101517.94;5074127;28;20024;-84
2022/12/19 08:14:35;;;;;;;11.03;5.50;;;;;;;5.55;100.00;101523.97;5073482;28;20028;-84
2022/12/19 08:17:01;;;;;;;11.15;6.00;;;;;;;5.57;100.00;101524.81;5074280;28;20021;-84
2022/12/19 08:19:26;;;;;;;11.05;5.80;;;;;;;5.60;100.00;101525.72;5073134;28;20020;-85
2022/12/19 08:21:51;;;;;;;13.05;6.18;;;;;;;5.62;100.00;101529.19;5073852;28;20025;-85
2022/12/19 08:24:17;;;;;;;11.00;5.88;;;;;;;5.63;100.00;101520.63;5073525;28;20099;-84
2022/12/19 08:26:42;;;;;;;11.32;5.70;;;;;;;5.65;100.00;101514.66;5073069;28;20540;-84
2022/12/19 08:29:16;;;;;;;11.43;5.32;;;;;;;5.77;100.00;101507.97;5073526;28;20035;-85
2022/12/19 08:31:42;;;;;;;11.80;5.72;;;;;;;5.66;100.00;101511.25;5073840;28;20020;-84
2022/12/19 08:34:07;;;;;;;9.93;5.50;;;;;;;5.70;100.00;101513.03;5072555;28;20030;-84
2022/12/19 08:36:33;;;;;;;10.77;5.18;;;;;;;5.71;100.00;101511.31;5073733;28;20059;-84
2022/12/19 08:38:58;;;;;;;8.70;4.97;;;;;;;5.70;100.00;101523.34;5073554;28;20017;-84
2022/12/19 08:41:24;;;;;;;12.70;6.27;;;;;;;5.74;100.00;101520.81;5072771;28;20074;-85
2022/12/19 08:43:51;;;;;;;13.93;6.38;;;;;;;5.85;100.00;101535.59;5073604;28;20025;-84
2022/12/19 08:46:17;;;;;;;12.52;5.80;;;;;;;5.80;100.00;101538.94;5073548;28;20029;-84
2022/12/19 08:48:43;;;;;;;11.70;5.70;;;;;;;5.82;100.00;101522.66;5072596;28;20107;-85
2022/12/19 08:51:10;;;;;;;11.30;6.25;;;;;;;5.85;100.00;101522.69;5073244;28;20024;-84
2022/12/19 08:53:37;;;;;;;13.63;6.10;;;;;;;5.91;100.00;101524.50;5073256;28;20043;-84
2022/12/19 08:56:10;;;;;;;11.20;5.68;;;;;;;6.02;100.00;101520.41;5072165;28;20025;-84
2022/12/19 08:58:35;;;;;;;11.05;5.50;;;;;;;5.95;100.00;101523.72;5073623;28;20025;-84
2022/12/19 09:01:07;;;;;;;12.32;5.75;;;;;;;6.00;100.00;101516.09;5073285;28;20052;-84
2022/12/19 09:03:33;;;;;;;10.70;5.53;;;;;;;6.09;100.00;101526.53;5072713;28;20029;-84
2022/12/19 09:06:02;;;;;;;11.70;5.45;;;;;;;6.08;100.00;101514.47;5073441;28;20086;-84
2022/12/19 09:08:27;;;;;;;10.32;5.35;;;;;;;6.05;100.00;101529.88;5073215;28;20070;-84
2022/12/19 09:11:02;;;;;;;11.00;5.10;;;;;;;6.12;100.00;101521.41;5072204;28;20528;-85
2022/12/19 09:13:29;;;;;;;10.68;5.40;;;;;;;6.10;100.00;101533.41;5073107;28;20484;-84
2022/12/19 09:16:06;;;;;;;9.73;4.97;;;;;;;6.10;100.00;101533.41;5072414;28;20147;-84
2022/12/19 09:18:32;;;;;;;8.40;4.70;;;;;;;6.13;100.00;101532.56;5072817;28;20484;-85
2022/12/19 09:20:58;;;;;;;9.23;4.90;;;;;;;6.13;100.00;101538.63;5073031;28;20051;-84
2022/12/19 09:23:28;;;;;;;8.82;4.85;;;;;;;6.19;100.00;101543.00;5071917;28;20024;-84
2022/12/19 09:25:54;;;;;;;9.93;4.97;;;;;;;6.19;100.00;101532.69;5073243;28;20016;-84
2022/12/19 09:28:20;;;;;;;9.98;5.20;;;;;;;6.20;100.00;101549.00;5072804;28;20031;-84
2022/12/19 09:31:03;;;;;;;11.52;5.28;;;;;;;6.22;100.00;101537.84;5071993;28;20111;-85
2022/12/19 09:33:31;;;;;;;9.50;5.28;;;;;;;6.26;100.00;101543.91;5072597;28;20029;-84
2022/12/19 09:35:58;;;;;;;8.75;4.80;;;;;;;6.30;100.00;101545.69;5072718;28;20053;-84
2022/12/19 09:38:24;;;;;;;9.65;5.00;;;;;;;6.27;100.00;101541.38;5071802;28;20025;-84
2022/12/19 09:41:11;;;;;;;9.52;4.85;;;;;;;6.31;100.00;101534.53;5072881;28;20055;-84
2022/12/19 09:44:11;;;;;;;10.60;5.40;;;;;;;6.32;100.00;101529.41;5072668;28;20040;-84
2022/12/19 09:46:51;;;;;;;8.65;4.78;;;;;;;6.33;100.00;101536.28;5073027;28;20036;-84
2022/12/19 09:49:21;;;;;;;9.38;5.00;;;;;;;6.38;100.00;101535.50;5072697;28;20013;-85
2022/12/19 09:52:05;;;;;;;7.97;4.53;;;;;;;6.40;100.00;101533.81;5072086;28;20024;-84
2022/12/19 09:54:37;;;;;;;10.35;5.32;;;;;;;6.49;100.00;101534.78;5072769;28;20453;-84
2022/12/19 09:57:13;;;;;;;11.27;5.22;;;;;;;6.52;100.00;101544.28;5072209;28;20024;-85
2022/12/19 09:59:52;;;;;;;11.32;5.53;;;;;;;6.57;100.00;101534.03;5071968;28;20048;-84
2022/12/19 10:02:42;;;;;;;10.43;5.00;;;;;;;6.58;100.00;101531.47;5072170;28;20025;-84
2022/12/19 10:05:13;;;;;;;7.88;4.55;;;;;;;6.64;100.00;101541.84;5070651;28;20032;-84
2022/12/19 10:07:38;;;;;;;11.40;5.45;;;;;;;6.68;100.00;101553.09;5072387;28;20451;-84
2022/12/19 10:10:04;;;;;;;10.67;4.97;;;;;;;6.73;100.00;101550.56;5071552;28;20052;-84
2022/12/19 10:12:40;;;;;;;10.43;5.37;;;;;;;6.74;100.00;101550.56;5072163;28;20070;-84
2022/12/19 10:15:16;;;;;;;9.20;5.05;;;;;;;6.74;100.00;101539.38;5072239;28;20032;-85
2022/12/19 10:18:12;;;;;;;9.75;5.18;;;;;;;6.77;100.00;101531.66;5072487;28;20025;-85
2022/12/19 10:20:51;;;;;;;10.38;5.07;;;;;;;6.78;100.00;101538.56;5071660;28;20508;-84
2022/12/19 10:23:29;;;;;;;9.00;4.70;;;;;;;6.79;100.00;101538.59;5072324;28;20024;-84
2022/12/19 10:26:02;;;;;;;10.70;5.25;;;;;;;6.86;100.00;101531.78;5075461;28;20044;-84
2022/12/19 10:29:04;;;;;;;9.70;5.28;;;;;;;6.85;100.00;101542.06;5076361;28;20025;-84
2022/12/19 10:31:47;;;;;;;9.90;5.10;;;;;;;6.88;100.00;101540.38;5076094;28;20030;-84
2022/12/19 10:34:27;;;;;;;10.25;5.30;;;;;;;6.89;100.00;101544.72;5074819;28;20025;-87
2022/12/19 10:36:59;;;;;;;9.60;4.93;;;;;;;6.88;100.00;101555.03;5076161;28;20082;-83
2022/12/19 10:39:34;;;;;;;9.40;4.63;;;;;;;6.85;100.00;101555.88;5076116;28;20024;-84
2022/12/19 10:42:14;;;;;;;9.35;4.65;;;;;;;6.86;100.00;101547.28;5075769;28;20017;-84
2022/12/19 10:44:44;;;;;;;8.40;4.75;;;;;;;6.84;100.00;101548.97;5075479;28;20059;-84
2022/12/19 10:47:15;;;;;;;8.95;4.63;;;;;;;6.88;100.00;101555.03;5074953;28;20369;-84
2022/12/19 10:49:41;;;;;;;9.23;4.88;;;;;;;6.86;100.00;101544.69;5075536;28;20032;-84
2022/12/19 10:52:08;;;;;;;9.00;4.80;;;;;;;6.89;100.00;101549.88;5075584;28;20028;-84
2022/12/19 10:54:36;;;;;;;10.60;4.93;;;;;;;6.92;100.00;101551.63;5074787;28;20511;-81
2022/12/19 10:57:17;;;;;;;10.75;5.10;;;;;;;6.92;100.00;101544.75;5075802;28;20064;-85
2022/12/19 10:59:56;;;;;;;7.70;4.40;;;;;;;6.90;100.00;101549.03;5075441;28;20079;-85
2022/12/19 11:02:37;;;;;;;7.53;4.32;;;;;;;6.88;100.00;101544.69;5074593;28;20074;-84
2022/12/19 11:05:05;;;;;;;8.90;4.50;;;;;;;6.90;100.00;101550.75;5075494;28;20028;-85
2022/12/19 11:07:31;;;;;;;10.27;5.35;;;;;;;6.88;100.00;101545.56;5075300;28;20032;-85
2022/12/19 11:09:56;;;;;;;9.37;5.07;;;;;;;6.88;100.00;101542.13;5075210;28;20023;-85
2022/12/19 11:12:27;;;;;;;9.27;4.83;;;;;;;6.86;100.00;101534.38;5074719;28;20432;-85
2022/12/19 11:15:13;;;;;;;7.80;4.53;;;;;;;6.89;100.00;101536.13;5075408;28;20013;-85
2022/12/19 11:17:38;;;;;;;8.25;4.22;;;;;;;6.85;100.00;101526.59;5075517;28;20055;-85
2022/12/19 11:20:33;;;;;;;7.95;4.40;;;;;;;6.86;100.00;101521.47;5074803;28;20047;-85
2022/12/19 11:23:02;;;;;;;8.32;4.75;;;;;;;6.85;100.00;101514.56;5057051;28;20032;-85
2022/12/19 11:25:38;;;;;;;6.88;4.20;;;;;;;6.85;100.00;101512.00;5075124;28;20063;-85
2022/12/19 11:28:18;;;;;;;6.35;4.07;;;;;;;6.85;100.00;101508.53;5074976;28;20024;-85
2022/12/19 11:30:55;;;;;;;8.23;4.50;;;;;;;6.87;100.00;101517.16;5074377;28;20028;-85
2022/12/19 11:33:20;;;;;;;;;;;;;;;6.88;100.00;101514.59;5075432;28;20013;-85
2022/12/19 11:35:57;;;;;;;7.50;4.50;;;;;;;6.95;100.00;101502.63;5074909;28;20280;-86